createdAt,value
2016-04-30T00:00:08.754Z,8.6
2016-04-30T00:00:18.616Z,8.6
2016-04-30T00:00:28.585Z,8.6
2016-04-30T00:00:38.741Z,8.6
2016-04-30T00:00:48.741Z,8.6
2016-04-30T00:00:58.725Z,8.6
2016-04-30T00:01:08.725Z,8.6
2016-04-30T00:01:18.728Z,8.6
2016-04-30T00:01:28.728Z,8.6
2016-04-30T00:01:38.713Z,8.6
2016-04-30T00:01:48.713Z,8.6
2016-04-30T00:01:58.697Z,8.6
2016-04-30T00:02:08.697Z,8.6
2016-04-30T00:02:18.683Z,8.6
2016-04-30T00:02:28.683Z,8.6
2016-04-30T00:02:38.683Z,8.6
2016-04-30T00:02:48.668Z,8.6
2016-04-30T00:02:58.683Z,8.6
2016-04-30T00:03:08.496Z,8.6
2016-04-30T00:03:18.982Z,8.6
2016-04-30T00:03:30.092Z,8.6
2016-04-30T00:03:39.076Z,8.6
2016-04-30T00:03:48.951Z,8.5
2016-04-30T00:03:58.420Z,8.5
2016-04-30T00:04:08.467Z,8.5
2016-04-30T00:04:18.471Z,8.5
2016-04-30T00:04:28.627Z,8.5
2016-04-30T00:04:38.643Z,8.5
2016-04-30T00:04:48.611Z,8.5
2016-04-30T00:04:58.471Z,8.5
2016-04-30T00:05:08.455Z,8.5
2016-04-30T00:05:18.441Z,8.5
2016-04-30T00:05:28.582Z,8.5
2016-04-30T00:05:38.270Z,8.5
2016-04-30T00:05:48.566Z,8.5
2016-04-30T00:05:58.566Z,8.5
2016-04-30T00:06:08.566Z,8.5
2016-04-30T00:06:18.273Z,8.5
2016-04-30T00:06:28.413Z,8.4
2016-04-30T00:06:38.554Z,8.4
2016-04-30T00:06:48.398Z,8.4
2016-04-30T00:06:58.523Z,8.4
2016-04-30T00:07:08.523Z,8.4
2016-04-30T00:07:18.526Z,8.4
2016-04-30T00:07:28.526Z,8.4
2016-04-30T00:07:38.510Z,8.4
2016-04-30T00:07:48.369Z,8.4
2016-04-30T00:07:58.354Z,8.4
2016-04-30T00:08:08.510Z,8.4
2016-04-30T00:08:18.510Z,8.4
2016-04-30T00:08:28.496Z,8.4
2016-04-30T00:08:38.496Z,8.4
2016-04-30T00:08:48.168Z,8.4
2016-04-30T00:08:58.465Z,8.4
2016-04-30T00:09:08.481Z,8.4
2016-04-30T00:09:18.465Z,8.4
2016-04-30T00:09:28.452Z,8.4
2016-04-30T00:09:38.468Z,8.4
2016-04-30T00:09:48.140Z,8.4
2016-04-30T00:09:58.452Z,8.4
2016-04-30T00:10:08.296Z,8.4
2016-04-30T00:10:18.437Z,8.4
2016-04-30T00:10:28.268Z,8.4
2016-04-30T00:10:38.424Z,8.4
2016-04-30T00:10:48.409Z,8.4
2016-04-30T00:10:58.409Z,8.4
2016-04-30T00:11:08.409Z,8.4
2016-04-30T00:11:18.409Z,8.4
2016-04-30T00:11:28.239Z,8.4
2016-04-30T00:11:38.411Z,8.4
2016-04-30T00:11:48.395Z,8.4
2016-04-30T00:11:58.395Z,8.4
2016-04-30T00:12:08.379Z,8.3
2016-04-30T00:12:18.364Z,8.4
2016-04-30T00:12:28.367Z,8.3
2016-04-30T00:12:38.210Z,8.3
2016-04-30T00:12:48.351Z,8.3
2016-04-30T00:12:58.351Z,8.3
2016-04-30T00:13:08.335Z,8.3
2016-04-30T00:13:18.351Z,8.3
2016-04-30T00:13:28.323Z,8.3
2016-04-30T00:13:38.307Z,8.3
2016-04-30T00:13:48.323Z,8.3
2016-04-30T00:13:58.323Z,8.3
2016-04-30T00:14:08.307Z,8.3
2016-04-30T00:14:18.323Z,8.3
2016-04-30T00:14:28.154Z,8.3
2016-04-30T00:14:38.295Z,8.3
2016-04-30T00:14:48.138Z,8.3
2016-04-30T00:14:58.295Z,8.3
2016-04-30T00:15:08.279Z,8.3
2016-04-30T00:15:18.279Z,8.3
2016-04-30T00:15:28.265Z,8.3
2016-04-30T00:15:38.265Z,8.3
2016-04-30T00:15:48.109Z,8.3
2016-04-30T00:15:58.250Z,8.3
2016-04-30T00:16:08.250Z,8.3
2016-04-30T00:16:18.093Z,8.3
2016-04-30T00:16:28.096Z,8.3
2016-04-30T00:16:38.221Z,8.3
2016-04-30T00:16:48.237Z,8.3
2016-04-30T00:16:58.065Z,8.3
2016-04-30T00:17:08.065Z,8.3
2016-04-30T00:17:18.206Z,8.3
2016-04-30T00:17:28.052Z,8.2
2016-04-30T00:17:38.192Z,8.2
2016-04-30T00:17:48.036Z,8.2
2016-04-30T00:17:58.192Z,8.2
2016-04-30T00:18:07.880Z,8.2
2016-04-30T00:18:18.192Z,8.2
2016-04-30T00:18:28.180Z,8.2
2016-04-30T00:18:38.023Z,8.2
2016-04-30T00:18:48.492Z,8.2
2016-04-30T00:18:58.789Z,8.2
2016-04-30T00:19:07.992Z,8.2
2016-04-30T00:19:18.148Z,8.2
2016-04-30T00:19:27.995Z,8.2
2016-04-30T00:19:38.151Z,8.2
2016-04-30T00:19:47.979Z,8.2
2016-04-30T00:19:58.120Z,8.2
2016-04-30T00:20:07.964Z,8.2
2016-04-30T00:20:18.104Z,8.2
2016-04-30T00:20:28.107Z,8.2
2016-04-30T00:20:38.107Z,8.2
2016-04-30T00:20:47.951Z,8.2
2016-04-30T00:20:58.107Z,8.2
2016-04-30T00:21:08.092Z,8.2
2016-04-30T00:21:17.920Z,8.2
2016-04-30T00:21:27.766Z,8.2
2016-04-30T00:21:37.906Z,8.2
2016-04-30T00:21:47.906Z,8.2
2016-04-30T00:21:58.063Z,8.2
2016-04-30T00:22:07.750Z,8.2
2016-04-30T00:22:18.063Z,8.2
2016-04-30T00:22:28.034Z,8.2
2016-04-30T00:22:38.034Z,8.2
2016-04-30T00:22:47.878Z,8.2
2016-04-30T00:22:57.862Z,8.2
2016-04-30T00:23:07.862Z,8.2
2016-04-30T00:23:18.206Z,8.1
2016-04-30T00:23:28.022Z,8.1
2016-04-30T00:23:38.037Z,8.2
2016-04-30T00:23:48.006Z,8.1
2016-04-30T00:23:57.990Z,8.1
2016-04-30T00:24:07.975Z,8.2
2016-04-30T00:24:17.975Z,8.1
2016-04-30T00:24:27.977Z,8.1
2016-04-30T00:24:37.977Z,8.1
2016-04-30T00:24:47.977Z,8.1
2016-04-30T00:24:57.821Z,8.1
2016-04-30T00:25:07.805Z,8.1
2016-04-30T00:25:18.086Z,8.1
2016-04-30T00:25:27.934Z,8.1
2016-04-30T00:25:37.950Z,8.1
2016-04-30T00:25:47.934Z,8.1
2016-04-30T00:25:57.621Z,8.1
2016-04-30T00:26:07.918Z,8.1
2016-04-30T00:26:17.762Z,8.1
2016-04-30T00:26:27.764Z,8.1
2016-04-30T00:26:37.608Z,8.1
2016-04-30T00:26:47.889Z,8.1
2016-04-30T00:26:57.905Z,8.1
2016-04-30T00:27:07.733Z,8.1
2016-04-30T00:27:17.733Z,8.1
2016-04-30T00:27:27.751Z,8.1
2016-04-30T00:27:37.720Z,8.1
2016-04-30T00:27:47.720Z,8.1
2016-04-30T00:27:57.720Z,8.1
2016-04-30T00:28:07.705Z,8.1
2016-04-30T00:28:17.861Z,8.1
2016-04-30T00:28:27.847Z,8.1
2016-04-30T00:28:37.847Z,8.1
2016-04-30T00:28:47.675Z,8.1
2016-04-30T00:28:57.691Z,8.1
2016-04-30T00:29:07.832Z,8.1
2016-04-30T00:29:17.832Z,8.1
2016-04-30T00:29:27.819Z,8.1
2016-04-30T00:29:37.803Z,8.1
2016-04-30T00:29:47.647Z,8.1
2016-04-30T00:29:57.647Z,8.1
2016-04-30T00:30:07.647Z,8.1
2016-04-30T00:30:17.803Z,8.1
2016-04-30T00:30:27.821Z,8
2016-04-30T00:30:37.790Z,8.1
2016-04-30T00:30:47.774Z,8
2016-04-30T00:30:57.602Z,8
2016-04-30T00:31:07.758Z,8
2016-04-30T00:31:17.618Z,8
2016-04-30T00:31:27.466Z,8
2016-04-30T00:31:37.778Z,8
2016-04-30T00:31:47.747Z,8
2016-04-30T00:31:57.762Z,8
2016-04-30T00:32:07.762Z,8.1
2016-04-30T00:32:17.606Z,8.1
2016-04-30T00:32:27.577Z,8
2016-04-30T00:32:37.718Z,8
2016-04-30T00:32:47.718Z,8
2016-04-30T00:32:57.702Z,8.1
2016-04-30T00:33:07.702Z,8
2016-04-30T00:33:17.858Z,8.1
2016-04-30T00:33:27.689Z,8.1
2016-04-30T00:33:38.174Z,8
2016-04-30T00:33:48.830Z,8.1
2016-04-30T00:33:57.846Z,8
2016-04-30T00:34:07.689Z,8.1
2016-04-30T00:34:17.658Z,8.1
2016-04-30T00:34:27.348Z,8
2016-04-30T00:34:37.644Z,8.1
2016-04-30T00:34:47.644Z,8.1
2016-04-30T00:34:57.660Z,8
2016-04-30T00:35:07.629Z,8
2016-04-30T00:35:17.644Z,8
2016-04-30T00:35:27.476Z,8
2016-04-30T00:35:37.632Z,8
2016-04-30T00:35:47.460Z,8
2016-04-30T00:35:57.601Z,8
2016-04-30T00:36:07.444Z,8
2016-04-30T00:36:17.429Z,8
2016-04-30T00:36:27.588Z,8
2016-04-30T00:36:37.604Z,8
2016-04-30T00:36:47.588Z,8
2016-04-30T00:36:57.588Z,8
2016-04-30T00:37:07.416Z,8
2016-04-30T00:37:17.416Z,8
2016-04-30T00:37:27.419Z,8
2016-04-30T00:37:37.544Z,8
2016-04-30T00:37:47.560Z,8
2016-04-30T00:37:57.544Z,8
2016-04-30T00:38:07.388Z,8
2016-04-30T00:38:17.544Z,8
2016-04-30T00:38:27.530Z,8
2016-04-30T00:38:37.515Z,8
2016-04-30T00:38:47.359Z,8
2016-04-30T00:38:57.343Z,8
2016-04-30T00:39:07.515Z,8
2016-04-30T00:39:17.499Z,8
2016-04-30T00:39:27.501Z,8
2016-04-30T00:39:37.486Z,8
2016-04-30T00:39:47.486Z,8
2016-04-30T00:39:57.470Z,8
2016-04-30T00:40:07.470Z,8
2016-04-30T00:40:17.314Z,8
2016-04-30T00:40:27.457Z,8
2016-04-30T00:40:37.160Z,8
2016-04-30T00:40:47.457Z,8
2016-04-30T00:40:57.442Z,8
2016-04-30T00:41:07.285Z,8
2016-04-30T00:41:17.285Z,8
2016-04-30T00:41:27.273Z,8
2016-04-30T00:41:37.429Z,8
2016-04-30T00:41:47.257Z,8
2016-04-30T00:41:57.257Z,8
2016-04-30T00:42:07.413Z,8
2016-04-30T00:42:17.242Z,8
2016-04-30T00:42:27.416Z,8
2016-04-30T00:42:37.245Z,8
2016-04-30T00:42:47.385Z,8
2016-04-30T00:42:57.385Z,7.9
2016-04-30T00:43:07.370Z,8
2016-04-30T00:43:17.370Z,7.9
2016-04-30T00:43:27.388Z,8
2016-04-30T00:43:37.388Z,7.9
2016-04-30T00:43:47.357Z,7.9
2016-04-30T00:43:57.044Z,7.9
2016-04-30T00:44:07.185Z,7.9
2016-04-30T00:44:17.326Z,7.9
2016-04-30T00:44:27.343Z,7.9
2016-04-30T00:44:37.343Z,7.9
2016-04-30T00:44:47.328Z,8
2016-04-30T00:44:57.328Z,7.9
2016-04-30T00:45:07.312Z,7.9
2016-04-30T00:45:17.156Z,7.9
2016-04-30T00:45:27.299Z,8
2016-04-30T00:45:37.143Z,8
2016-04-30T00:45:47.284Z,8
2016-04-30T00:45:57.284Z,8
2016-04-30T00:46:07.284Z,8
2016-04-30T00:46:17.284Z,8
2016-04-30T00:46:26.959Z,8
2016-04-30T00:46:37.271Z,8
2016-04-30T00:46:47.271Z,8
2016-04-30T00:46:57.115Z,8
2016-04-30T00:47:07.240Z,8
2016-04-30T00:47:17.240Z,8
2016-04-30T00:47:27.101Z,8
2016-04-30T00:47:37.070Z,8
2016-04-30T00:47:47.258Z,8
2016-04-30T00:47:57.226Z,8
2016-04-30T00:48:07.211Z,8
2016-04-30T00:48:17.601Z,8
2016-04-30T00:48:27.073Z,8
2016-04-30T00:48:37.479Z,8
2016-04-30T00:48:47.745Z,8
2016-04-30T00:48:57.511Z,8
2016-04-30T00:49:07.479Z,8
2016-04-30T00:49:17.167Z,8
2016-04-30T00:49:27.045Z,8
2016-04-30T00:49:37.185Z,8
2016-04-30T00:49:47.170Z,8
2016-04-30T00:49:57.154Z,8.1
2016-04-30T00:50:07.170Z,8.1
2016-04-30T00:50:17.139Z,8
2016-04-30T00:50:27.141Z,8
2016-04-30T00:50:37.125Z,8
2016-04-30T00:50:47.125Z,8
2016-04-30T00:50:57.141Z,8
2016-04-30T00:51:07.125Z,8
2016-04-30T00:51:16.953Z,8
2016-04-30T00:51:27.128Z,8.1
2016-04-30T00:51:37.097Z,8
2016-04-30T00:51:46.940Z,8.1
2016-04-30T00:51:56.940Z,8.1
2016-04-30T00:52:07.097Z,8.1
2016-04-30T00:52:17.081Z,8
2016-04-30T00:52:27.084Z,8
2016-04-30T00:52:37.068Z,8
2016-04-30T00:52:47.068Z,8
2016-04-30T00:52:56.912Z,8.1
2016-04-30T00:53:06.897Z,8.1
2016-04-30T00:53:16.725Z,8.1
2016-04-30T00:53:27.040Z,8.1
2016-04-30T00:53:36.884Z,8.1
2016-04-30T00:53:47.056Z,8.1
2016-04-30T00:53:57.040Z,8.1
2016-04-30T00:54:07.056Z,8.1
2016-04-30T00:54:17.025Z,8.1
2016-04-30T00:54:26.855Z,8.1
2016-04-30T00:54:37.011Z,8.1
2016-04-30T00:54:47.011Z,8.1
2016-04-30T00:54:56.855Z,8.1
2016-04-30T00:55:06.980Z,8.1
2016-04-30T00:55:16.995Z,8.1
2016-04-30T00:55:26.983Z,8.1
2016-04-30T00:55:36.983Z,8.1
2016-04-30T00:55:46.967Z,8.1
2016-04-30T00:55:56.967Z,8.1
2016-04-30T00:56:06.967Z,8.1
2016-04-30T00:56:16.951Z,8.1
2016-04-30T00:56:26.797Z,8.1
2016-04-30T00:56:36.938Z,8.1
2016-04-30T00:56:46.953Z,8.1
2016-04-30T00:56:56.938Z,8.1
2016-04-30T00:57:06.922Z,8.1
2016-04-30T00:57:16.922Z,8.1
2016-04-30T00:57:26.925Z,8.1
2016-04-30T00:57:36.910Z,8.1
2016-04-30T00:57:46.910Z,8.1
2016-04-30T00:57:56.753Z,8.1
2016-04-30T00:58:06.894Z,8.1
2016-04-30T00:58:16.878Z,8.1
2016-04-30T00:58:26.725Z,8.1
2016-04-30T00:58:36.866Z,8.1
2016-04-30T00:58:46.866Z,8.1
2016-04-30T00:58:56.725Z,8.1
2016-04-30T00:59:06.866Z,8.1
2016-04-30T00:59:16.850Z,8.1
2016-04-30T00:59:26.853Z,8.1
2016-04-30T00:59:36.837Z,8.1
2016-04-30T00:59:46.666Z,8.1
2016-04-30T00:59:56.837Z,8.1
2016-04-30T01:00:06.666Z,8.1
2016-04-30T01:00:16.822Z,8.1
2016-04-30T01:00:26.824Z,8.1
2016-04-30T01:00:36.668Z,8.1
2016-04-30T01:00:46.668Z,8.1
2016-04-30T01:00:56.808Z,8.1
2016-04-30T01:01:06.793Z,8.2
2016-04-30T01:01:16.793Z,8.1
2016-04-30T01:01:26.780Z,8.1
2016-04-30T01:01:36.764Z,8.1
2016-04-30T01:01:46.780Z,8.1
2016-04-30T01:01:56.624Z,8.1
2016-04-30T01:02:06.608Z,8.1
2016-04-30T01:02:16.608Z,8.1
2016-04-30T01:02:26.751Z,8.1
2016-04-30T01:02:36.766Z,8.1
2016-04-30T01:02:46.735Z,8.1
2016-04-30T01:02:56.719Z,8.2
2016-04-30T01:03:06.860Z,8.1
2016-04-30T01:03:16.438Z,8.2
2016-04-30T01:03:27.989Z,8.1
2016-04-30T01:03:37.270Z,8.2
2016-04-30T01:03:46.614Z,8.2
2016-04-30T01:03:56.583Z,8.2
2016-04-30T01:04:06.708Z,8.2
2016-04-30T01:04:16.692Z,8.2
2016-04-30T01:04:26.725Z,8.2
2016-04-30T01:04:36.710Z,8.2
2016-04-30T01:04:46.679Z,8.2
2016-04-30T01:04:56.663Z,8.2
2016-04-30T01:05:06.663Z,8.2
2016-04-30T01:05:16.350Z,8.2
2016-04-30T01:05:26.665Z,8.2
2016-04-30T01:05:36.649Z,8.2
2016-04-30T01:05:46.649Z,8.2
2016-04-30T01:05:56.477Z,8.2
2016-04-30T01:06:06.493Z,8.2
2016-04-30T01:06:16.618Z,8.2
2016-04-30T01:06:26.622Z,8.2
2016-04-30T01:06:36.622Z,8.2
2016-04-30T01:06:46.466Z,8.2
2016-04-30T01:06:56.606Z,8.2
2016-04-30T01:07:06.606Z,8.2
2016-04-30T01:07:16.606Z,8.2
2016-04-30T01:07:26.593Z,8.2
2016-04-30T01:07:36.577Z,8.2
2016-04-30T01:07:46.421Z,8.2
2016-04-30T01:07:56.577Z,8.2
2016-04-30T01:08:06.405Z,8.2
2016-04-30T01:08:16.546Z,8.2
2016-04-30T01:08:26.424Z,8.2
2016-04-30T01:08:36.549Z,8.2
2016-04-30T01:08:46.549Z,8.2
2016-04-30T01:08:56.393Z,8.2
2016-04-30T01:09:06.377Z,8.2
2016-04-30T01:09:16.533Z,8.2
2016-04-30T01:09:26.520Z,8.2
2016-04-30T01:09:36.504Z,8.2
2016-04-30T01:09:46.520Z,8.2
2016-04-30T01:09:56.504Z,8.2
2016-04-30T01:10:06.520Z,8.2
2016-04-30T01:10:16.504Z,8.2
2016-04-30T01:10:26.351Z,8.2
2016-04-30T01:10:36.491Z,8.2
2016-04-30T01:10:46.023Z,8.2
2016-04-30T01:10:56.460Z,8.2
2016-04-30T01:11:06.476Z,8.2
2016-04-30T01:11:16.460Z,8.2
2016-04-30T01:11:26.323Z,8.2
2016-04-30T01:11:36.151Z,8.2
2016-04-30T01:11:46.151Z,8.2
2016-04-30T01:11:56.448Z,8.2
2016-04-30T01:12:06.432Z,8.2
2016-04-30T01:12:16.448Z,8.2
2016-04-30T01:12:26.279Z,8.2
2016-04-30T01:12:36.107Z,8.2
2016-04-30T01:12:46.279Z,8.2
2016-04-30T01:12:56.404Z,8.2
2016-04-30T01:13:06.247Z,8.2
2016-04-30T01:13:16.404Z,8.2
2016-04-30T01:13:26.390Z,8.3
2016-04-30T01:13:36.406Z,8.2
2016-04-30T01:13:46.390Z,8.3
2016-04-30T01:13:56.374Z,8.2
2016-04-30T01:14:06.390Z,8.3
2016-04-30T01:14:16.359Z,8.3
2016-04-30T01:14:26.362Z,8.2
2016-04-30T01:14:36.362Z,8.2
2016-04-30T01:14:46.362Z,8.2
2016-04-30T01:14:56.034Z,8.3
2016-04-30T01:15:06.346Z,8.3
2016-04-30T01:15:16.190Z,8.3
2016-04-30T01:15:26.334Z,8.3
2016-04-30T01:15:36.334Z,8.3
2016-04-30T01:15:46.334Z,8.3
2016-04-30T01:15:56.162Z,8.3
2016-04-30T01:16:06.318Z,8.3
2016-04-30T01:16:15.990Z,8.3
2016-04-30T01:16:26.164Z,8.3
2016-04-30T01:16:36.132Z,8.3
2016-04-30T01:16:46.289Z,8.3
2016-04-30T01:16:56.132Z,8.3
2016-04-30T01:17:06.132Z,8.3
2016-04-30T01:17:16.273Z,8.3
2016-04-30T01:17:26.104Z,8.3
2016-04-30T01:17:36.260Z,8.3
2016-04-30T01:17:46.260Z,8.3
2016-04-30T01:17:56.260Z,8.3
2016-04-30T01:18:06.104Z,8.3
2016-04-30T01:18:16.245Z,8.3
2016-04-30T01:18:26.248Z,8.3
2016-04-30T01:18:37.045Z,8.3
2016-04-30T01:18:46.279Z,8.3
2016-04-30T01:18:56.279Z,8.3
2016-04-30T01:19:06.060Z,8.3
2016-04-30T01:19:16.248Z,8.3
2016-04-30T01:19:26.203Z,8.3
2016-04-30T01:19:36.062Z,8.3
2016-04-30T01:19:46.203Z,8.3
2016-04-30T01:19:56.031Z,8.3
2016-04-30T01:20:06.172Z,8.3
2016-04-30T01:20:16.156Z,8.3
2016-04-30T01:20:26.018Z,8.3
2016-04-30T01:20:36.159Z,8.3
2016-04-30T01:20:46.159Z,8.3
2016-04-30T01:20:56.159Z,8.3
2016-04-30T01:21:06.003Z,8.3
2016-04-30T01:21:15.987Z,8.3
2016-04-30T01:21:26.131Z,8.3
2016-04-30T01:21:36.131Z,8.3
2016-04-30T01:21:46.131Z,8.3
2016-04-30T01:21:56.100Z,8.3
2016-04-30T01:22:06.115Z,8.3
2016-04-30T01:22:15.975Z,8.3
2016-04-30T01:22:26.102Z,8.3
2016-04-30T01:22:36.102Z,8.3
2016-04-30T01:22:45.930Z,8.3
2016-04-30T01:22:56.102Z,8.3
2016-04-30T01:23:06.086Z,8.3
2016-04-30T01:23:15.914Z,8.3
2016-04-30T01:23:26.073Z,8.3
2016-04-30T01:23:36.058Z,8.3
2016-04-30T01:23:46.073Z,8.3
2016-04-30T01:23:55.901Z,8.3
2016-04-30T01:24:06.042Z,8.3
2016-04-30T01:24:15.901Z,8.3
2016-04-30T01:24:25.889Z,8.3
2016-04-30T01:24:36.029Z,8.3
2016-04-30T01:24:45.889Z,8.3
2016-04-30T01:24:56.014Z,8.3
2016-04-30T01:25:06.029Z,8.3
2016-04-30T01:25:16.014Z,8.3
2016-04-30T01:25:26.000Z,8.3
2016-04-30T01:25:35.844Z,8.3
2016-04-30T01:25:46.000Z,8.3
2016-04-30T01:25:55.844Z,8.3
2016-04-30T01:26:05.828Z,8.3
2016-04-30T01:26:16.000Z,8.3
2016-04-30T01:26:25.988Z,8.3
2016-04-30T01:26:35.816Z,8.3
2016-04-30T01:26:45.972Z,8.3
2016-04-30T01:26:55.956Z,8.3
2016-04-30T01:27:05.956Z,8.3
2016-04-30T01:27:15.956Z,8.3
2016-04-30T01:27:25.944Z,8.3
2016-04-30T01:27:35.959Z,8.3
2016-04-30T01:27:45.928Z,8.3
2016-04-30T01:27:55.772Z,8.3
2016-04-30T01:28:05.928Z,8.3
2016-04-30T01:28:15.912Z,8.3
2016-04-30T01:28:25.914Z,8.3
2016-04-30T01:28:35.914Z,8.3
2016-04-30T01:28:45.899Z,8.3
2016-04-30T01:28:55.899Z,8.3
2016-04-30T01:29:05.743Z,8.4
2016-04-30T01:29:15.727Z,8.3
2016-04-30T01:29:25.871Z,8.3
2016-04-30T01:29:35.871Z,8.3
2016-04-30T01:29:45.871Z,8.3
2016-04-30T01:29:55.855Z,8.4
2016-04-30T01:30:05.855Z,8.4
2016-04-30T01:30:15.839Z,8.3
2016-04-30T01:30:25.685Z,8.3
2016-04-30T01:30:35.841Z,8.3
2016-04-30T01:30:45.841Z,8.4
2016-04-30T01:30:55.826Z,8.3
2016-04-30T01:31:05.685Z,8.4
2016-04-30T01:31:15.810Z,8.4
2016-04-30T01:31:25.829Z,8.3
2016-04-30T01:31:35.657Z,8.3
2016-04-30T01:31:45.657Z,8.4
2016-04-30T01:31:55.797Z,8.4
2016-04-30T01:32:05.782Z,8.4
2016-04-30T01:32:15.797Z,8.4
2016-04-30T01:32:25.630Z,8.4
2016-04-30T01:32:35.770Z,8.4
2016-04-30T01:32:45.770Z,8.4
2016-04-30T01:32:55.770Z,8.4
2016-04-30T01:33:05.770Z,8.4
2016-04-30T01:33:15.598Z,8.4
2016-04-30T01:33:25.866Z,8.4
2016-04-30T01:33:36.100Z,8.4
2016-04-30T01:33:45.663Z,8.4
2016-04-30T01:33:56.257Z,8.4
2016-04-30T01:34:06.522Z,8.4
2016-04-30T01:34:15.553Z,8.4
2016-04-30T01:34:25.728Z,8.4
2016-04-30T01:34:35.556Z,8.4
2016-04-30T01:34:45.572Z,8.4
2016-04-30T01:34:55.572Z,8.4
2016-04-30T01:35:05.697Z,8.4
2016-04-30T01:35:15.697Z,8.4
2016-04-30T01:35:25.683Z,8.4
2016-04-30T01:35:35.668Z,8.4
2016-04-30T01:35:45.371Z,8.4
2016-04-30T01:35:55.683Z,8.4
2016-04-30T01:36:05.652Z,8.4
2016-04-30T01:36:15.652Z,8.4
2016-04-30T01:36:25.655Z,8.4
2016-04-30T01:36:35.343Z,8.4
2016-04-30T01:36:45.655Z,8.4
2016-04-30T01:36:55.640Z,8.4
2016-04-30T01:37:05.624Z,8.4
2016-04-30T01:37:15.640Z,8.4
2016-04-30T01:37:25.471Z,8.4
2016-04-30T01:37:35.611Z,8.4
2016-04-30T01:37:45.611Z,8.4
2016-04-30T01:37:55.596Z,8.4
2016-04-30T01:38:05.596Z,8.4
2016-04-30T01:38:15.596Z,8.4
2016-04-30T01:38:25.582Z,8.4
2016-04-30T01:38:35.441Z,8.4
2016-04-30T01:38:45.426Z,8.4
2016-04-30T01:38:55.566Z,8.4
2016-04-30T01:39:05.566Z,8.4
2016-04-30T01:39:15.566Z,8.4
2016-04-30T01:39:25.569Z,8.4
2016-04-30T01:39:35.569Z,8.4
2016-04-30T01:39:45.554Z,8.4
2016-04-30T01:39:55.554Z,8.5
2016-04-30T01:40:05.382Z,8.4
2016-04-30T01:40:15.398Z,8.5
2016-04-30T01:40:25.526Z,8.5
2016-04-30T01:40:35.510Z,8.5
2016-04-30T01:40:45.526Z,8.5
2016-04-30T01:40:55.494Z,8.4
2016-04-30T01:41:05.354Z,8.5
2016-04-30T01:41:15.354Z,8.5
2016-04-30T01:41:25.496Z,8.5
2016-04-30T01:41:35.496Z,8.5
2016-04-30T01:41:45.481Z,8.5
2016-04-30T01:41:55.481Z,8.5
2016-04-30T01:42:05.465Z,8.5
2016-04-30T01:42:15.449Z,8.5
2016-04-30T01:42:25.484Z,8.5
2016-04-30T01:42:35.468Z,8.5
2016-04-30T01:42:45.452Z,8.5
2016-04-30T01:42:55.452Z,8.5
2016-04-30T01:43:05.140Z,8.5
2016-04-30T01:43:15.437Z,8.5
2016-04-30T01:43:25.440Z,8.5
2016-04-30T01:43:35.440Z,8.5
2016-04-30T01:43:45.424Z,8.5
2016-04-30T01:43:55.252Z,8.5
2016-04-30T01:44:05.409Z,8.5
2016-04-30T01:44:15.237Z,8.5
2016-04-30T01:44:25.412Z,8.5
2016-04-30T01:44:35.396Z,8.5
2016-04-30T01:44:45.380Z,8.5
2016-04-30T01:44:55.380Z,8.5
2016-04-30T01:45:05.380Z,8.5
2016-04-30T01:45:15.380Z,8.5
2016-04-30T01:45:25.227Z,8.5
2016-04-30T01:45:35.368Z,8.5
2016-04-30T01:45:45.196Z,8.5
2016-04-30T01:45:55.196Z,8.5
2016-04-30T01:46:05.352Z,8.5
2016-04-30T01:46:15.352Z,8.5
2016-04-30T01:46:25.338Z,8.5
2016-04-30T01:46:35.182Z,8.5
2016-04-30T01:46:45.323Z,8.5
2016-04-30T01:46:55.307Z,8.5
2016-04-30T01:47:05.307Z,8.5
2016-04-30T01:47:15.307Z,8.5
2016-04-30T01:47:25.294Z,8.5
2016-04-30T01:47:35.309Z,8.5
2016-04-30T01:47:45.294Z,8.5
2016-04-30T01:47:55.278Z,8.5
2016-04-30T01:48:05.122Z,8.5
2016-04-30T01:48:15.262Z,8.5
2016-04-30T01:48:25.906Z,8.5
2016-04-30T01:48:35.843Z,8.5
2016-04-30T01:48:45.812Z,8.5
2016-04-30T01:48:55.172Z,8.5
2016-04-30T01:49:05.250Z,8.5
2016-04-30T01:49:15.359Z,8.5
2016-04-30T01:49:25.253Z,8.5
2016-04-30T01:49:35.221Z,8.6
2016-04-30T01:49:45.081Z,8.5
2016-04-30T01:49:55.065Z,8.6
2016-04-30T01:50:05.206Z,8.6
2016-04-30T01:50:14.909Z,8.6
2016-04-30T01:50:25.192Z,8.6
2016-04-30T01:50:35.052Z,8.6
2016-04-30T01:50:45.192Z,8.6
2016-04-30T01:50:55.192Z,8.6
2016-04-30T01:51:05.177Z,8.6
2016-04-30T01:51:15.020Z,8.6
2016-04-30T01:51:25.181Z,8.6
2016-04-30T01:51:35.149Z,8.6
2016-04-30T01:51:45.165Z,8.6
2016-04-30T01:51:55.165Z,8.6
2016-04-30T01:52:05.149Z,8.6
2016-04-30T01:52:15.149Z,8.6
2016-04-30T01:52:25.136Z,8.6
2016-04-30T01:52:35.136Z,8.6
2016-04-30T01:52:44.979Z,8.6
2016-04-30T01:52:55.104Z,8.6
2016-04-30T01:53:04.964Z,8.6
2016-04-30T01:53:15.120Z,8.6
2016-04-30T01:53:25.107Z,8.6
2016-04-30T01:53:35.107Z,8.6
2016-04-30T01:53:44.951Z,8.6
2016-04-30T01:53:55.107Z,8.6
2016-04-30T01:54:05.092Z,8.6
2016-04-30T01:54:14.936Z,8.6
2016-04-30T01:54:24.766Z,8.6
2016-04-30T01:54:34.922Z,8.6
2016-04-30T01:54:44.906Z,8.6
2016-04-30T01:54:55.047Z,8.6
2016-04-30T01:55:04.891Z,8.6
2016-04-30T01:55:15.047Z,8.6
2016-04-30T01:55:25.050Z,8.6
2016-04-30T01:55:35.050Z,8.6
2016-04-30T01:55:45.034Z,8.6
2016-04-30T01:55:54.862Z,8.6
2016-04-30T01:56:05.019Z,8.6
2016-04-30T01:56:15.003Z,8.6
2016-04-30T01:56:25.006Z,8.6
2016-04-30T01:56:35.022Z,8.6
2016-04-30T01:56:44.850Z,8.6
2016-04-30T01:56:55.006Z,8.6
2016-04-30T01:57:04.834Z,8.6
2016-04-30T01:57:14.975Z,8.6
2016-04-30T01:57:24.836Z,8.6
2016-04-30T01:57:34.977Z,8.6
2016-04-30T01:57:44.977Z,8.6
2016-04-30T01:57:54.977Z,8.6
2016-04-30T01:58:04.961Z,8.6
2016-04-30T01:58:14.961Z,8.6
2016-04-30T01:58:24.949Z,8.6
2016-04-30T01:58:34.949Z,8.6
2016-04-30T01:58:44.792Z,8.6
2016-04-30T01:58:54.933Z,8.6
2016-04-30T01:59:04.792Z,8.7
2016-04-30T01:59:14.933Z,8.6
2016-04-30T01:59:24.764Z,8.6
2016-04-30T01:59:34.905Z,8.6
2016-04-30T01:59:44.905Z,8.6
2016-04-30T01:59:54.748Z,8.6
2016-04-30T02:00:04.889Z,8.7
2016-04-30T02:00:14.764Z,8.6
2016-04-30T02:00:24.908Z,8.6
2016-04-30T02:00:34.876Z,8.7
2016-04-30T02:00:44.876Z,8.7
2016-04-30T02:00:54.861Z,8.6
2016-04-30T02:01:04.720Z,8.7
2016-04-30T02:01:14.845Z,8.7
2016-04-30T02:01:24.691Z,8.7
2016-04-30T02:01:34.519Z,8.7
2016-04-30T02:01:44.832Z,8.7
2016-04-30T02:01:54.847Z,8.7
2016-04-30T02:02:04.675Z,8.7
2016-04-30T02:02:14.707Z,8.7
2016-04-30T02:02:24.522Z,8.7
2016-04-30T02:02:34.819Z,8.7
2016-04-30T02:02:44.663Z,8.7
2016-04-30T02:02:54.788Z,8.7
2016-04-30T02:03:04.803Z,8.7
2016-04-30T02:03:14.788Z,8.7
2016-04-30T02:03:24.650Z,8.7
2016-04-30T02:03:34.806Z,8.7
2016-04-30T02:03:45.150Z,8.7
2016-04-30T02:03:55.291Z,8.7
2016-04-30T02:04:05.103Z,8.7
2016-04-30T02:04:14.775Z,8.7
2016-04-30T02:04:24.794Z,8.7
2016-04-30T02:04:34.591Z,8.7
2016-04-30T02:04:44.606Z,8.7
2016-04-30T02:04:54.731Z,8.7
2016-04-30T02:05:04.747Z,8.7
2016-04-30T02:05:14.419Z,8.7
2016-04-30T02:05:24.718Z,8.7
2016-04-30T02:05:34.593Z,8.7
2016-04-30T02:05:44.718Z,8.7
2016-04-30T02:05:54.577Z,8.7
2016-04-30T02:06:04.702Z,8.7
2016-04-30T02:06:14.671Z,8.7
2016-04-30T02:06:24.689Z,8.7
2016-04-30T02:06:34.533Z,8.7
2016-04-30T02:06:44.674Z,8.7
2016-04-30T02:06:54.533Z,8.7
2016-04-30T02:07:04.674Z,8.7
2016-04-30T02:07:14.674Z,8.7
2016-04-30T02:07:24.660Z,8.7
2016-04-30T02:07:34.644Z,8.7
2016-04-30T02:07:44.644Z,8.7
2016-04-30T02:07:54.629Z,8.7
2016-04-30T02:08:04.644Z,8.7
2016-04-30T02:08:14.613Z,8.7
2016-04-30T02:08:24.476Z,8.7
2016-04-30T02:08:34.616Z,8.7
2016-04-30T02:08:44.319Z,8.7
2016-04-30T02:08:54.616Z,8.7
2016-04-30T02:09:04.304Z,8.7
2016-04-30T02:09:14.601Z,8.7
2016-04-30T02:09:24.588Z,8.7
2016-04-30T02:09:34.588Z,8.7
2016-04-30T02:09:44.432Z,8.7
2016-04-30T02:09:54.572Z,8.7
2016-04-30T02:10:04.432Z,8.7
2016-04-30T02:10:14.572Z,8.7
2016-04-30T02:10:24.559Z,8.7
2016-04-30T02:10:34.559Z,8.7
2016-04-30T02:10:44.543Z,8.7
2016-04-30T02:10:54.543Z,8.7
2016-04-30T02:11:04.543Z,8.7
2016-04-30T02:11:14.402Z,8.7
2016-04-30T02:11:24.390Z,8.7
2016-04-30T02:11:34.530Z,8.7
2016-04-30T02:11:44.515Z,8.7
2016-04-30T02:11:54.515Z,8.7
2016-04-30T02:12:04.515Z,8.7
2016-04-30T02:12:14.515Z,8.7
2016-04-30T02:12:24.502Z,8.7
2016-04-30T02:12:34.346Z,8.7
2016-04-30T02:12:44.487Z,8.7
2016-04-30T02:12:54.471Z,8.7
2016-04-30T02:13:04.471Z,8.7
2016-04-30T02:13:14.471Z,8.7
2016-04-30T02:13:24.458Z,8.7
2016-04-30T02:13:34.474Z,8.7
2016-04-30T02:13:44.458Z,8.7
2016-04-30T02:13:54.302Z,8.7
2016-04-30T02:14:04.458Z,8.7
2016-04-30T02:14:14.271Z,8.7
2016-04-30T02:14:24.429Z,8.7
2016-04-30T02:14:34.273Z,8.7
2016-04-30T02:14:44.413Z,8.7
2016-04-30T02:14:54.429Z,8.7
2016-04-30T02:15:04.413Z,8.7
2016-04-30T02:15:14.288Z,8.7
2016-04-30T02:15:24.415Z,8.7
2016-04-30T02:15:34.400Z,8.7
2016-04-30T02:15:44.384Z,8.7
2016-04-30T02:15:54.384Z,8.7
2016-04-30T02:16:04.369Z,8.7
2016-04-30T02:16:14.384Z,8.7
2016-04-30T02:16:24.372Z,8.7
2016-04-30T02:16:34.231Z,8.7
2016-04-30T02:16:44.340Z,8.7
2016-04-30T02:16:54.340Z,8.7
2016-04-30T02:17:04.340Z,8.8
2016-04-30T02:17:14.184Z,8.8
2016-04-30T02:17:24.188Z,8.8
2016-04-30T02:17:34.344Z,8.8
2016-04-30T02:17:44.329Z,8.8
2016-04-30T02:17:54.329Z,8.7
2016-04-30T02:18:04.329Z,8.7
2016-04-30T02:18:14.297Z,8.7
2016-04-30T02:18:24.143Z,8.7
2016-04-30T02:18:34.331Z,8.7
2016-04-30T02:18:44.346Z,8.7
2016-04-30T02:18:55.971Z,8.7